• Join FlightAware (Why Join?)
  • Login
  • US Flag 
06:09PM EDT


 

Airport Tracker/Info


-or-


 

Live Flight TrackerFlight Track Log ✈ ASA183 ✈ 22-Apr-2013 ✈ PANC - PAFA / FAI

Flight Track Log - Related Links

Times and Time Zones

All times are in EDT time to prevent confusion due to time zone crossing. See the ASA183 flight status page for this flight to view local times or setup timezone preferences in your user account.

Time Position Orientation Groundspeed Altitude Reporting Facility
EDT Latitude Longitude Course Direction KTS MPH feet Rate Location/Type
03:06PM 61.3000 -150.1667 12° North 270 311 6,400  Level Anchorage Center
03:07PM 61.3833 -150.1167 16° North 270 311 9,500 2,520 Climbing Anchorage Center
03:08PM 61.4667 -150.0833 11° North 310 357 11,500 2,700 Climbing Anchorage Center
03:09PM 61.5500 -150.0167 21° North 340 391 15,000 3,120 Climbing Anchorage Center
03:10PM 61.7865 -149.7094 12° North  Level FlightAware Approximate
03:10PM 61.6500 -149.9667 13° North 370 426 17,700  Level Anchorage Center
03:11PM 61.8899 -149.6627 12° North  Level FlightAware Approximate
03:11PM 61.7500 -149.9167 13° North 360 414 20,700  Level Anchorage Center
03:12PM 61.9931 -149.6157 12° North  Level FlightAware Approximate
03:12PM 61.8500 -149.8667 13° North 370 426 23,000  Level Anchorage Center
03:13PM 61.9500 -149.9500 339° North 390 449 23,000  Level Anchorage Center
03:14PM 62.0667 -150.0667 335° Northwest 420 483 23,000  Level Anchorage Center
03:15PM 62.1667 -150.1833 331° Northwest 430 495 23,000  Level Anchorage Center
03:16PM 62.2833 -150.3000 335° Northwest 450 518 23,000  Level Anchorage Center
03:17PM 62.4000 -150.4167 335° Northwest 440 506 23,000  Level Anchorage Center
03:18PM 62.5000 -150.5333 332° Northwest 440 506 23,000  Level Anchorage Center
03:19PM 62.6000 -150.6500 332° Northwest 420 483 23,000  Level Anchorage Center
03:20PM 62.7167 -150.7833 332° Northwest 460 529 23,000  Level Anchorage Center
03:21PM 62.8167 -150.8833 335° Northwest 410 472 23,000  Level Anchorage Center
03:22PM 62.9167 -150.9667 339° North 350 403 23,000  Level Anchorage Center
03:23PM 62.9833 -151.0667 326° Northwest 290 334 23,000  Level Anchorage Center
03:24PM 63.0667 -151.1333 340° North 300 345 23,000  Level Anchorage Center
03:25PM 63.1333 -151.0333 34° Northeast 310 357 23,000  Level Anchorage Center
03:26PM 63.2167 -150.9167 32° Northeast 370 426 23,000  Level Anchorage Center
03:27PM 63.3167 -150.7667 34° Northeast 420 483 23,000  Level Anchorage Center
03:28PM 63.4167 -150.6333 31° Northeast 420 483 23,000  Level Anchorage Center
03:29PM 63.5167 -150.5000 31° Northeast 420 483 23,000  Level Anchorage Center
03:30PM 63.6167 -150.3667 31° Northeast 410 472 23,000  Level Anchorage Center
03:31PM 63.7167 -150.2500 27° Northeast 420 483 23,000  Level Anchorage Center
03:32PM 63.8333 -150.1000 30° Northeast 420 483 23,000  Level Anchorage Center
03:33PM 63.9333 -149.9667 30° Northeast 420 483 23,000  Level Anchorage Center
03:34PM 64.0333 -149.8333 30° Northeast 420 483 23,000 -60 Level Anchorage Center
03:35PM 64.1167 -149.6667 41° Northeast 410 472 22,900 -2,040 Descending Anchorage Center
03:36PM 64.1833 -149.4667 53° Northeast 410 472 19,000 -3,300 Descending Anchorage Center
03:37PM 64.2667 -149.2833 44° Northeast 400 460 16,400 -2,700 Descending Anchorage Center
03:39PM 64.3507 -149.0636 48° Northeast  Level FlightAware Approximate
03:46PM 64.8000 -147.8500 49° Northeast  Level FlightAware Approximate
03:47PM 64.8151 -147.8564 49° Northeast  Level Estimated
03:48PM 64.8151 -147.8564 49° Northeast  Level Estimated
03:49PM 64.8151 -147.8564 49° Northeast  Level Estimated
03:50PM 64.8151 -147.8564 49° Northeast  Level Estimated
03:51PM 64.8151 -147.8564 49° Northeast  Level Estimated
03:52PM 64.8151 -147.8564 49° Northeast  Level Estimated
03:53PM 64.8151 -147.8564 49° Northeast  Level Estimated
03:54PM 64.8151 -147.8564 49° Northeast  Level Estimated
03:55PM 64.8151 -147.8564 49° Northeast  Level Estimated
03:56PM 64.8151 -147.8564 49° Northeast  Level Estimated
03:57PM 64.8151 -147.8564 49° Northeast  Level Estimated
03:58PM 64.8151 -147.8564 49° Northeast  Level Estimated
03:59PM 64.8151 -147.8564 49° Northeast  Level Estimated
04:00PM 64.8151 -147.8564 49° Northeast  Level Estimated